Aviation Digital Data Service (ADDS)

Output produced by METARs form (0831 UTC 20 September 2018)
found at http://www.aviationweather.gov/metar/data/
 
KCBM 192256Z AUTO 02003KT 10SM CLR 33/20 A2993 RMK AO2 SLP136 T03330197 $
KCBM 192156Z AUTO 36003KT 10SM CLR 34/20 A2993 RMK AO2 SLP136 T03410197 $
KCBM 192056Z AUTO 34004KT 10SM CLR 34/20 A2993 RMK AO2 SLP136 T03440196 $
KCBM 191956Z AUTO 05004KT 10SM CLR 34/19 A2995 RMK AO2 SLP143 T03430187 $
KCBM 191856Z AUTO 09005KT 10SM CLR 34/20 A2996 RMK AO2 SLP146 T03410204 $
KCBM 191756Z AUTO 00000KT 10SM CLR 34/19 A2999 RMK AO2 SLP156 60000 T03360185 10336 20205 58010 $
KCBM 191656Z AUTO 00000KT 10SM CLR 33/23 A3000 RMK AO2 SLP159 T03280228 $
KCBM 191556Z AUTO 00000KT 10SM CLR 32/22 A3001 RMK AO2 SLP163 T03200218 $
KCBM 191456Z AUTO 00000KT 10SM CLR 30/22 A3001 RMK AO2 RAB1356E13RAB15E25RAB30E50DZB50E55 SLP163 P0000 60000 T02980222 52010 $
KCBM 191356Z AUTO 00000KT 10SM CLR 26/22 A3000 RMK AO2 SLP160 T02590224 $
KCBM 191256Z AUTO 00000KT 10SM CLR 24/21 A3000 RMK AO2 SLP160 T02350212 $
KCBM 191156Z AUTO 00000KT 10SM CLR 21/20 A2998 RMK AO2 SLP153 T02050198 10231 20202 52015 $
KCBM 191056Z AUTO 00000KT 10SM CLR 20/19 A2997 RMK AO2 SLPNO T02020192 $
KCBM 190956Z AUTO 00000KT 10SM CLR 21/20 A2995 RMK AO2 SLP143 T02100201 $
KCBM 190856Z AUTO 11003KT 10SM CLR 21/20 A2994 RMK AO2 SLP139 T02100203 53001 $
KCBM 190756Z AUTO 00000KT 10SM CLR 22/21 A2993 RMK AO2 SLP136 T02180211 $
KCBM 190656Z AUTO 00000KT 10SM CLR 22/21 A2993 RMK AO2 SLP136 T02180209 $
KCBM 190556Z AUTO 00000KT 10SM CLR 23/22 A2994 RMK AO2 SLP139 60000 T02250218 10294 20220 403370211 50001 $
KCBM 190456Z AUTO 00000KT 10SM CLR 23/21 A2993 RMK AO2 RAB03E13 SLP136 P0000 T02280214 $
KCBM 190356Z AUTO 00000KT 10SM CLR 23/22 A2994 RMK AO2 SLP139 T02300220 $
KCBM 190256Z AUTO 00000KT 10SM CLR 24/22 A2993 RMK AO2 SLP136 T02360220 52008 $
KCBM 190156Z AUTO 00000KT 10SM CLR 25/23 A2993 RMK AO2 SLP136 T02470227 $
KCBM 190056Z AUTO 00000KT 10SM CLR 27/24 A2992 RMK AO2 SLP133 T02690235 $
KCBM 182356Z AUTO 00000KT 10SM CLR 30/23 A2991 RMK AO2 SLP129 T02950234 10337 20295 $
KCBM 182256Z AUTO 00000KT 10SM CLR 33/21 A2990 RMK AO2 SLP126 T03260208 $
KCBM 182156Z AUTO 31005KT 10SM CLR 33/21 A2991 RMK AO2 SLP129 T03320210 $
KCBM 181956Z AUTO 00000KT 10SM CLR 32/20 A2992 RMK AO2 SLP133 T03220201 $
KCBM 181856Z AUTO 00000KT 10SM CLR 33/21 A2994 RMK AO2 SLP139 T03280210 $
KCBM 181756Z AUTO 29004KT 10SM SCT050 33/21 A2997 RMK AO2 SLP149 60000 T03290214 10330 20216 58013 $
KCBM 181716Z AUTO 00000KT 10SM SCT043 32/21 A2998 RMK AO2 SLP153 $
KCBM 181711Z AUTO 00000KT 10SM BKN043 32/22 A2998 RMK AO2 SLP153 $
KCBM 181656Z AUTO 00000KT 10SM FEW043 31/22 A2999 RMK AO2 SLP156 T03080215 $
KCBM 181556Z AUTO 00000KT 10SM CLR 31/22 A3000 RMK AO2 SLP160 T03060219 $
KCBM 181456Z AUTO 00000KT 10SM CLR 28/23 A3000 RMK AO2 RAB22E31 SLP160 P0000 60000 T02790226 50005 $
KCBM 181356Z AUTO 00000KT 10SM CLR 25/23 A3001 RMK AO2 SLP163 T02480225 $
KCBM 181256Z AUTO 00000KT 10SM CLR 24/22 A3000 RMK AO2 SLP160 T02360220 $
KCBM 181156Z AUTO 00000KT 10SM CLR 22/21 A2999 RMK AO2 SLP156 60000 T02160209 10235 20211 52010 $
KCBM 181056Z AUTO 00000KT 10SM CLR 21/21 A2998 RMK AO2 SLP153 T02130206 $
KCBM 171356Z 00000KT 10SM CLR 26/22 A2995 RMK AO2 DZB34E41RAB41E46RAB48 SLP143 P0000 T02630221 $
KCBM 171256Z 00000KT 10SM CLR 23/22 A2993 RMK AO2 SLP136 T02340220 $
KCBM 171156Z AUTO 00000KT 10SM CLR 22/21 A2993 RMK AO2 SLP136 T02170208 10239 20212 53010 $